sensor_id;sensor_type;location;lat;lon;timestamp;P1;durP1;ratioP1;P2;durP2;ratioP2
51296;SDS011;37380;45.186;9.792;2023-03-26T00:01:21;8.55;;;5.15;;
51296;SDS011;37380;45.186;9.792;2023-03-26T00:03:49;26.90;;;6.70;;
51296;SDS011;37380;45.186;9.792;2023-03-26T00:06:21;10.63;;;5.15;;
51296;SDS011;37380;45.186;9.792;2023-03-26T00:08:50;16.67;;;5.05;;
51296;SDS011;37380;45.186;9.792;2023-03-26T00:11:19;12.20;;;4.43;;
51296;SDS011;37380;45.186;9.792;2023-03-26T00:13:48;13.10;;;4.47;;
51296;SDS011;37380;45.186;9.792;2023-03-26T00:16:16;11.85;;;4.78;;
51296;SDS011;37380;45.186;9.792;2023-03-26T00:18:50;11.05;;;4.25;;
51296;SDS011;37380;45.186;9.792;2023-03-26T00:21:46;10.45;;;5.13;;
51296;SDS011;37380;45.186;9.792;2023-03-26T00:24:13;8.55;;;4.53;;
51296;SDS011;37380;45.186;9.792;2023-03-26T00:26:42;6.30;;;3.92;;
51296;SDS011;37380;45.186;9.792;2023-03-26T00:29:11;10.43;;;4.68;;
51296;SDS011;37380;45.186;9.792;2023-03-26T00:31:47;15.05;;;5.95;;
51296;SDS011;37380;45.186;9.792;2023-03-26T00:37:38;9.85;;;4.47;;
51296;SDS011;37380;45.186;9.792;2023-03-26T00:40:08;8.90;;;3.95;;
51296;SDS011;37380;45.186;9.792;2023-03-26T00:42:36;11.02;;;3.35;;
51296;SDS011;37380;45.186;9.792;2023-03-26T00:45:04;6.50;;;3.22;;
51296;SDS011;37380;45.186;9.792;2023-03-26T00:47:39;7.13;;;3.05;;
51296;SDS011;37380;45.186;9.792;2023-03-26T00:50:34;7.30;;;3.30;;
51296;SDS011;37380;45.186;9.792;2023-03-26T00:53:01;6.78;;;4.18;;
51296;SDS011;37380;45.186;9.792;2023-03-26T00:55:35;7.28;;;3.85;;
51296;SDS011;37380;45.186;9.792;2023-03-26T00:58:30;15.30;;;3.72;;
51296;SDS011;37380;45.186;9.792;2023-03-26T01:00:59;6.75;;;3.08;;
51296;SDS011;37380;45.186;9.792;2023-03-26T01:03:29;11.93;;;3.90;;
51296;SDS011;37380;45.186;9.792;2023-03-26T01:06:02;5.50;;;3.10;;
51296;SDS011;37380;45.186;9.792;2023-03-26T01:08:43;9.57;;;4.32;;
51296;SDS011;37380;45.186;9.792;2023-03-26T01:13:56;14.48;;;7.70;;
51296;SDS011;37380;45.186;9.792;2023-03-26T01:22:37;16.98;;;10.35;;
51296;SDS011;37380;45.186;9.792;2023-03-26T01:25:07;13.80;;;12.48;;
51296;SDS011;37380;45.186;9.792;2023-03-26T01:27:47;12.48;;;11.15;;
51296;SDS011;37380;45.186;9.792;2023-03-26T01:38:10;25.65;;;16.10;;
51296;SDS011;37380;45.186;9.792;2023-03-26T01:46:26;21.60;;;17.65;;
51296;SDS011;37380;45.186;9.792;2023-03-26T01:49:29;27.63;;;17.83;;
51296;SDS011;37380;45.186;9.792;2023-03-26T01:52:28;29.65;;;16.55;;
51296;SDS011;37380;45.186;9.792;2023-03-26T01:55:01;22.83;;;17.83;;
51296;SDS011;37380;45.186;9.792;2023-03-26T02:00:59;33.70;;;15.88;;
51296;SDS011;37380;45.186;9.792;2023-03-26T02:03:40;18.63;;;15.30;;
51296;SDS011;37380;45.186;9.792;2023-03-26T02:08:59;22.08;;;15.10;;
51296;SDS011;37380;45.186;9.792;2023-03-26T02:11:34;19.48;;;13.70;;
51296;SDS011;37380;45.186;9.792;2023-03-26T02:14:04;22.30;;;13.93;;
51296;SDS011;37380;45.186;9.792;2023-03-26T02:16:33;26.02;;;16.05;;
51296;SDS011;37380;45.186;9.792;2023-03-26T02:19:06;17.50;;;15.63;;
51296;SDS011;37380;45.186;9.792;2023-03-26T02:22:10;20.60;;;16.30;;
51296;SDS011;37380;45.186;9.792;2023-03-26T02:24:43;19.60;;;16.98;;
51296;SDS011;37380;45.186;9.792;2023-03-26T02:27:12;19.63;;;15.70;;
51296;SDS011;37380;45.186;9.792;2023-03-26T02:29:39;18.42;;;15.93;;
51296;SDS011;37380;45.186;9.792;2023-03-26T02:32:09;28.45;;;16.83;;
51296;SDS011;37380;45.186;9.792;2023-03-26T02:34:40;21.52;;;15.20;;
51296;SDS011;37380;45.186;9.792;2023-03-26T02:37:08;20.10;;;17.67;;
51296;SDS011;37380;45.186;9.792;2023-03-26T02:39:38;19.35;;;16.40;;
51296;SDS011;37380;45.186;9.792;2023-03-26T02:42:16;18.00;;;12.32;;
51296;SDS011;37380;45.186;9.792;2023-03-26T02:44:47;25.02;;;17.92;;
51296;SDS011;37380;45.186;9.792;2023-03-26T02:47:22;26.40;;;17.13;;
51296;SDS011;37380;45.186;9.792;2023-03-26T02:50:43;21.40;;;17.73;;
51296;SDS011;37380;45.186;9.792;2023-03-26T02:57:35;29.58;;;19.85;;
51296;SDS011;37380;45.186;9.792;2023-03-26T03:00:36;27.98;;;20.67;;
51296;SDS011;37380;45.186;9.792;2023-03-26T03:03:29;24.23;;;18.17;;
51296;SDS011;37380;45.186;9.792;2023-03-26T03:05:59;23.45;;;19.20;;
51296;SDS011;37380;45.186;9.792;2023-03-26T03:08:40;26.52;;;21.17;;
51296;SDS011;37380;45.186;9.792;2023-03-26T03:11:28;27.95;;;20.27;;
51296;SDS011;37380;45.186;9.792;2023-03-26T03:14:22;29.17;;;20.80;;
51296;SDS011;37380;45.186;9.792;2023-03-26T03:16:49;21.15;;;18.88;;
51296;SDS011;37380;45.186;9.792;2023-03-26T03:19:23;23.92;;;21.17;;
51296;SDS011;37380;45.186;9.792;2023-03-26T03:22:17;27.13;;;19.85;;
51296;SDS011;37380;45.186;9.792;2023-03-26T03:24:48;25.30;;;19.77;;
51296;SDS011;37380;45.186;9.792;2023-03-26T03:27:18;25.02;;;19.30;;
51296;SDS011;37380;45.186;9.792;2023-03-26T03:29:53;22.63;;;20.10;;
51296;SDS011;37380;45.186;9.792;2023-03-26T03:32:39;23.50;;;19.92;;
51296;SDS011;37380;45.186;9.792;2023-03-26T03:35:15;23.35;;;15.50;;
51296;SDS011;37380;45.186;9.792;2023-03-26T03:38:16;22.70;;;18.73;;
51296;SDS011;37380;45.186;9.792;2023-03-26T03:41:11;25.30;;;16.75;;
51296;SDS011;37380;45.186;9.792;2023-03-26T03:43:41;21.35;;;18.50;;
51296;SDS011;37380;45.186;9.792;2023-03-26T03:46:15;24.98;;;20.55;;
51296;SDS011;37380;45.186;9.792;2023-03-26T03:48:44;33.33;;;21.60;;
51296;SDS011;37380;45.186;9.792;2023-03-26T03:51:23;26.52;;;20.77;;
51296;SDS011;37380;45.186;9.792;2023-03-26T03:54:03;33.45;;;22.02;;
51296;SDS011;37380;45.186;9.792;2023-03-26T03:57:14;26.63;;;18.63;;
51296;SDS011;37380;45.186;9.792;2023-03-26T04:00:14;20.65;;;17.45;;
51296;SDS011;37380;45.186;9.792;2023-03-26T04:03:34;24.80;;;19.27;;
51296;SDS011;37380;45.186;9.792;2023-03-26T04:06:44;25.90;;;20.75;;
51296;SDS011;37380;45.186;9.792;2023-03-26T04:09:14;29.90;;;20.80;;
51296;SDS011;37380;45.186;9.792;2023-03-26T04:11:43;27.98;;;20.50;;
51296;SDS011;37380;45.186;9.792;2023-03-26T04:14:42;23.20;;;18.77;;
51296;SDS011;37380;45.186;9.792;2023-03-26T04:17:24;34.75;;;21.15;;
51296;SDS011;37380;45.186;9.792;2023-03-26T04:20:20;25.23;;;20.35;;
51296;SDS011;37380;45.186;9.792;2023-03-26T04:22:49;32.28;;;22.20;;
51296;SDS011;37380;45.186;9.792;2023-03-26T04:25:18;36.92;;;19.92;;
51296;SDS011;37380;45.186;9.792;2023-03-26T04:27:55;30.17;;;21.20;;
51296;SDS011;37380;45.186;9.792;2023-03-26T04:30:56;23.45;;;19.50;;
51296;SDS011;37380;45.186;9.792;2023-03-26T04:33:36;32.00;;;20.73;;
51296;SDS011;37380;45.186;9.792;2023-03-26T04:36:07;24.95;;;17.85;;
51296;SDS011;37380;45.186;9.792;2023-03-26T04:38:39;21.45;;;18.90;;
51296;SDS011;37380;45.186;9.792;2023-03-26T04:41:12;23.75;;;19.25;;
51296;SDS011;37380;45.186;9.792;2023-03-26T04:44:03;25.70;;;22.75;;
51296;SDS011;37380;45.186;9.792;2023-03-26T04:46:47;31.17;;;20.38;;
51296;SDS011;37380;45.186;9.792;2023-03-26T04:49:25;35.38;;;22.80;;
51296;SDS011;37380;45.186;9.792;2023-03-26T04:51:52;39.42;;;22.90;;
51296;SDS011;37380;45.186;9.792;2023-03-26T04:54:46;28.88;;;24.73;;
51296;SDS011;37380;45.186;9.792;2023-03-26T04:57:40;29.10;;;21.30;;
51296;SDS011;37380;45.186;9.792;2023-03-26T05:00:41;24.90;;;21.17;;
51296;SDS011;37380;45.186;9.792;2023-03-26T05:03:43;28.55;;;21.77;;
51296;SDS011;37380;45.186;9.792;2023-03-26T05:06:37;39.67;;;23.00;;
51296;SDS011;37380;45.186;9.792;2023-03-26T05:09:15;29.42;;;23.20;;
51296;SDS011;37380;45.186;9.792;2023-03-26T05:12:01;29.75;;;21.88;;
51296;SDS011;37380;45.186;9.792;2023-03-26T05:14:36;23.58;;;19.98;;
51296;SDS011;37380;45.186;9.792;2023-03-26T05:17:18;32.10;;;22.80;;
51296;SDS011;37380;45.186;9.792;2023-03-26T05:20:23;32.50;;;26.73;;
51296;SDS011;37380;45.186;9.792;2023-03-26T05:23:29;28.92;;;23.80;;
51296;SDS011;37380;45.186;9.792;2023-03-26T05:26:12;40.95;;;26.48;;
51296;SDS011;37380;45.186;9.792;2023-03-26T05:28:40;29.17;;;25.02;;
51296;SDS011;37380;45.186;9.792;2023-03-26T05:31:28;27.35;;;22.83;;
51296;SDS011;37380;45.186;9.792;2023-03-26T05:33:59;31.20;;;23.92;;
51296;SDS011;37380;45.186;9.792;2023-03-26T05:36:27;31.02;;;22.70;;
51296;SDS011;37380;45.186;9.792;2023-03-26T05:39:17;32.17;;;20.13;;
51296;SDS011;37380;45.186;9.792;2023-03-26T05:41:59;28.25;;;22.92;;
51296;SDS011;37380;45.186;9.792;2023-03-26T05:44:39;30.50;;;19.95;;
51296;SDS011;37380;45.186;9.792;2023-03-26T05:47:15;30.02;;;22.05;;
51296;SDS011;37380;45.186;9.792;2023-03-26T05:49:43;27.67;;;22.55;;
51296;SDS011;37380;45.186;9.792;2023-03-26T05:52:10;23.38;;;20.90;;
51296;SDS011;37380;45.186;9.792;2023-03-26T05:55:10;23.27;;;21.10;;
51296;SDS011;37380;45.186;9.792;2023-03-26T05:58:34;41.22;;;20.50;;
51296;SDS011;37380;45.186;9.792;2023-03-26T06:01:40;48.25;;;24.40;;
51296;SDS011;37380;45.186;9.792;2023-03-26T06:04:16;25.50;;;22.67;;
51296;SDS011;37380;45.186;9.792;2023-03-26T06:07:04;41.72;;;25.30;;
51296;SDS011;37380;45.186;9.792;2023-03-26T06:09:37;25.73;;;22.08;;
51296;SDS011;37380;45.186;9.792;2023-03-26T06:12:06;39.20;;;26.00;;
51296;SDS011;37380;45.186;9.792;2023-03-26T06:14:35;31.52;;;25.08;;
51296;SDS011;37380;45.186;9.792;2023-03-26T06:17:32;35.90;;;23.58;;
51296;SDS011;37380;45.186;9.792;2023-03-26T06:20:42;25.17;;;22.40;;
51296;SDS011;37380;45.186;9.792;2023-03-26T06:23:19;32.45;;;22.52;;
51296;SDS011;37380;45.186;9.792;2023-03-26T06:26:05;29.80;;;22.33;;
51296;SDS011;37380;45.186;9.792;2023-03-26T06:28:55;31.48;;;23.75;;
51296;SDS011;37380;45.186;9.792;2023-03-26T06:31:43;30.70;;;23.48;;
51296;SDS011;37380;45.186;9.792;2023-03-26T06:34:23;32.58;;;21.75;;
51296;SDS011;37380;45.186;9.792;2023-03-26T06:36:52;33.60;;;20.77;;
51296;SDS011;37380;45.186;9.792;2023-03-26T06:39:20;45.40;;;21.02;;
51296;SDS011;37380;45.186;9.792;2023-03-26T06:42:04;26.98;;;21.20;;
51296;SDS011;37380;45.186;9.792;2023-03-26T06:45:23;22.75;;;20.33;;
51296;SDS011;37380;45.186;9.792;2023-03-26T06:48:35;23.05;;;19.77;;
51296;SDS011;37380;45.186;9.792;2023-03-26T06:51:21;32.75;;;22.75;;
51296;SDS011;37380;45.186;9.792;2023-03-26T06:54:18;25.58;;;21.02;;
51296;SDS011;37380;45.186;9.792;2023-03-26T06:57:39;26.75;;;18.13;;
51296;SDS011;37380;45.186;9.792;2023-03-26T07:00:38;31.52;;;23.75;;
51296;SDS011;37380;45.186;9.792;2023-03-26T07:03:57;21.27;;;19.08;;
51296;SDS011;37380;45.186;9.792;2023-03-26T07:07:17;22.48;;;18.25;;
51296;SDS011;37380;45.186;9.792;2023-03-26T07:10:13;27.30;;;20.88;;
51296;SDS011;37380;45.186;9.792;2023-03-26T07:12:55;26.67;;;20.02;;
51296;SDS011;37380;45.186;9.792;2023-03-26T07:16:07;31.17;;;25.65;;
51296;SDS011;37380;45.186;9.792;2023-03-26T07:19:00;31.58;;;22.23;;
51296;SDS011;37380;45.186;9.792;2023-03-26T07:21:54;31.52;;;24.23;;
51296;SDS011;37380;45.186;9.792;2023-03-26T07:24:44;37.35;;;23.60;;
51296;SDS011;37380;45.186;9.792;2023-03-26T07:45:38;21.90;;;19.38;;
51296;SDS011;37380;45.186;9.792;2023-03-26T07:48:38;26.70;;;18.90;;
51296;SDS011;37380;45.186;9.792;2023-03-26T07:51:21;24.10;;;21.23;;
51296;SDS011;37380;45.186;9.792;2023-03-26T07:54:45;38.22;;;20.88;;
51296;SDS011;37380;45.186;9.792;2023-03-26T08:22:40;21.90;;;16.50;;
51296;SDS011;37380;45.186;9.792;2023-03-26T08:28:02;23.65;;;20.88;;
51296;SDS011;37380;45.186;9.792;2023-03-26T08:30:42;23.10;;;18.42;;
51296;SDS011;37380;45.186;9.792;2023-03-26T08:33:19;24.10;;;18.30;;
51296;SDS011;37380;45.186;9.792;2023-03-26T08:35:48;33.25;;;18.58;;
51296;SDS011;37380;45.186;9.792;2023-03-26T08:38:16;26.55;;;18.83;;
51296;SDS011;37380;45.186;9.792;2023-03-26T09:08:04;20.33;;;15.70;;
51296;SDS011;37380;45.186;9.792;2023-03-26T09:37:57;24.45;;;14.80;;
51296;SDS011;37380;45.186;9.792;2023-03-26T09:40:35;20.60;;;17.13;;
51296;SDS011;37380;45.186;9.792;2023-03-26T10:01:52;21.88;;;14.02;;
51296;SDS011;37380;45.186;9.792;2023-03-26T10:07:05;18.52;;;14.85;;
51296;SDS011;37380;45.186;9.792;2023-03-26T10:09:50;27.92;;;13.57;;
51296;SDS011;37380;45.186;9.792;2023-03-26T10:21:44;17.00;;;13.63;;
51296;SDS011;37380;45.186;9.792;2023-03-26T10:32:21;25.88;;;15.68;;
51296;SDS011;37380;45.186;9.792;2023-03-26T10:35:18;18.67;;;12.57;;
51296;SDS011;37380;45.186;9.792;2023-03-26T10:37:49;22.00;;;13.85;;
51296;SDS011;37380;45.186;9.792;2023-03-26T10:40:46;19.15;;;12.13;;
51296;SDS011;37380;45.186;9.792;2023-03-26T10:52:01;15.85;;;10.48;;
51296;SDS011;37380;45.186;9.792;2023-03-26T11:04:49;27.08;;;11.00;;
51296;SDS011;37380;45.186;9.792;2023-03-26T11:16:01;20.60;;;14.75;;
51296;SDS011;37380;45.186;9.792;2023-03-26T11:22:22;12.50;;;10.57;;
51296;SDS011;37380;45.186;9.792;2023-03-26T11:33:26;18.30;;;10.98;;
51296;SDS011;37380;45.186;9.792;2023-03-26T11:36:04;19.85;;;11.25;;
51296;SDS011;37380;45.186;9.792;2023-03-26T11:41:10;26.73;;;11.45;;
51296;SDS011;37380;45.186;9.792;2023-03-26T11:43:56;17.02;;;9.30;;
51296;SDS011;37380;45.186;9.792;2023-03-26T11:46:33;15.18;;;9.70;;
51296;SDS011;37380;45.186;9.792;2023-03-26T11:49:08;27.85;;;11.30;;
51296;SDS011;37380;45.186;9.792;2023-03-26T11:51:38;12.45;;;7.78;;
51296;SDS011;37380;45.186;9.792;2023-03-26T11:54:14;22.27;;;8.68;;
51296;SDS011;37380;45.186;9.792;2023-03-26T11:57:09;17.02;;;9.70;;
51296;SDS011;37380;45.186;9.792;2023-03-26T11:59:46;16.33;;;8.68;;
51296;SDS011;37380;45.186;9.792;2023-03-26T12:03:06;11.15;;;8.68;;
51296;SDS011;37380;45.186;9.792;2023-03-26T12:05:49;13.95;;;8.90;;
51296;SDS011;37380;45.186;9.792;2023-03-26T12:08:38;15.75;;;9.30;;
51296;SDS011;37380;45.186;9.792;2023-03-26T12:11:11;14.95;;;9.63;;
51296;SDS011;37380;45.186;9.792;2023-03-26T12:13:40;19.25;;;8.88;;
51296;SDS011;37380;45.186;9.792;2023-03-26T12:19:04;15.70;;;8.30;;
51296;SDS011;37380;45.186;9.792;2023-03-26T12:22:38;19.10;;;8.60;;
51296;SDS011;37380;45.186;9.792;2023-03-26T12:30:50;18.92;;;9.05;;
51296;SDS011;37380;45.186;9.792;2023-03-26T12:33:25;13.55;;;9.00;;
51296;SDS011;37380;45.186;9.792;2023-03-26T12:35:55;12.18;;;7.55;;
51296;SDS011;37380;45.186;9.792;2023-03-26T12:38:30;13.90;;;8.60;;
51296;SDS011;37380;45.186;9.792;2023-03-26T12:41:04;13.23;;;9.73;;
51296;SDS011;37380;45.186;9.792;2023-03-26T12:43:54;13.60;;;9.95;;
51296;SDS011;37380;45.186;9.792;2023-03-26T12:46:42;23.67;;;10.60;;
51296;SDS011;37380;45.186;9.792;2023-03-26T12:49:33;19.45;;;9.48;;
51296;SDS011;37380;45.186;9.792;2023-03-26T12:52:08;13.65;;;9.50;;
51296;SDS011;37380;45.186;9.792;2023-03-26T13:13:59;17.38;;;9.98;;
51296;SDS011;37380;45.186;9.792;2023-03-26T13:16:54;19.67;;;10.20;;
51296;SDS011;37380;45.186;9.792;2023-03-26T13:23:38;18.00;;;10.32;;
51296;SDS011;37380;45.186;9.792;2023-03-26T13:31:57;15.13;;;9.57;;
51296;SDS011;37380;45.186;9.792;2023-03-26T13:37:30;19.45;;;10.02;;
51296;SDS011;37380;45.186;9.792;2023-03-26T13:40:15;13.68;;;9.32;;
51296;SDS011;37380;45.186;9.792;2023-03-26T13:46:39;20.80;;;9.63;;
51296;SDS011;37380;45.186;9.792;2023-03-26T13:48:56;21.90;;;10.57;;
51296;SDS011;37380;45.186;9.792;2023-03-26T13:57:58;21.95;;;13.10;;
51296;SDS011;37380;45.186;9.792;2023-03-26T14:01:14;17.60;;;12.85;;
51296;SDS011;37380;45.186;9.792;2023-03-26T14:17:30;28.55;;;12.93;;
51296;SDS011;37380;45.186;9.792;2023-03-26T14:23:32;15.95;;;12.63;;
51296;SDS011;37380;45.186;9.792;2023-03-26T14:34:38;16.45;;;12.00;;
51296;SDS011;37380;45.186;9.792;2023-03-26T14:45:37;20.02;;;13.82;;
51296;SDS011;37380;45.186;9.792;2023-03-26T14:51:25;14.45;;;8.55;;
51296;SDS011;37380;45.186;9.792;2023-03-26T14:54:12;15.88;;;9.50;;
51296;SDS011;37380;45.186;9.792;2023-03-26T15:31:46;10.25;;;6.50;;
51296;SDS011;37380;45.186;9.792;2023-03-26T15:41:15;15.57;;;10.00;;
51296;SDS011;37380;45.186;9.792;2023-03-26T15:49:45;19.38;;;10.27;;
51296;SDS011;37380;45.186;9.792;2023-03-26T15:52:34;18.00;;;11.07;;
51296;SDS011;37380;45.186;9.792;2023-03-26T16:11:12;10.55;;;9.52;;
51296;SDS011;37380;45.186;9.792;2023-03-26T16:13:41;11.20;;;10.15;;
51296;SDS011;37380;45.186;9.792;2023-03-26T16:16:19;16.27;;;10.77;;
51296;SDS011;37380;45.186;9.792;2023-03-26T16:19:25;19.63;;;11.40;;
51296;SDS011;37380;45.186;9.792;2023-03-26T16:28:15;12.50;;;10.52;;
51296;SDS011;37380;45.186;9.792;2023-03-26T16:36:37;13.77;;;11.57;;
51296;SDS011;37380;45.186;9.792;2023-03-26T16:39:16;15.68;;;14.10;;
51296;SDS011;37380;45.186;9.792;2023-03-26T16:44:52;24.17;;;13.70;;
51296;SDS011;37380;45.186;9.792;2023-03-26T16:47:36;15.57;;;13.45;;
51296;SDS011;37380;45.186;9.792;2023-03-26T16:53:04;13.63;;;11.95;;
51296;SDS011;37380;45.186;9.792;2023-03-26T17:00:21;16.30;;;14.75;;
51296;SDS011;37380;45.186;9.792;2023-03-26T17:03:26;20.60;;;12.95;;
51296;SDS011;37380;45.186;9.792;2023-03-26T17:06:23;13.70;;;12.30;;
51296;SDS011;37380;45.186;9.792;2023-03-26T17:08:59;16.60;;;12.85;;
51296;SDS011;37380;45.186;9.792;2023-03-26T17:14:22;18.83;;;11.98;;
51296;SDS011;37380;45.186;9.792;2023-03-26T17:17:06;15.75;;;12.25;;
51296;SDS011;37380;45.186;9.792;2023-03-26T17:25:38;17.27;;;13.88;;
51296;SDS011;37380;45.186;9.792;2023-03-26T17:31:21;16.92;;;14.00;;
51296;SDS011;37380;45.186;9.792;2023-03-26T17:42:28;22.38;;;14.27;;
51296;SDS011;37380;45.186;9.792;2023-03-26T17:45:19;23.27;;;16.63;;
51296;SDS011;37380;45.186;9.792;2023-03-26T17:47:55;18.58;;;16.45;;
51296;SDS011;37380;45.186;9.792;2023-03-26T17:50:32;16.45;;;14.73;;
51296;SDS011;37380;45.186;9.792;2023-03-26T17:53:21;17.80;;;14.63;;
51296;SDS011;37380;45.186;9.792;2023-03-26T17:56:26;19.35;;;15.27;;
51296;SDS011;37380;45.186;9.792;2023-03-26T17:59:07;21.48;;;15.38;;
51296;SDS011;37380;45.186;9.792;2023-03-26T18:02:20;17.67;;;15.85;;
51296;SDS011;37380;45.186;9.792;2023-03-26T18:05:03;27.65;;;19.83;;
51296;SDS011;37380;45.186;9.792;2023-03-26T18:16:38;29.77;;;20.48;;
51296;SDS011;37380;45.186;9.792;2023-03-26T18:20:18;29.88;;;18.75;;
51296;SDS011;37380;45.186;9.792;2023-03-26T18:28:13;21.27;;;17.85;;
51296;SDS011;37380;45.186;9.792;2023-03-26T18:33:35;23.65;;;17.08;;
51296;SDS011;37380;45.186;9.792;2023-03-26T18:38:38;28.15;;;18.52;;
51296;SDS011;37380;45.186;9.792;2023-03-26T18:47:26;17.70;;;15.73;;
51296;SDS011;37380;45.186;9.792;2023-03-26T19:02:04;23.35;;;17.10;;
51296;SDS011;37380;45.186;9.792;2023-03-26T19:19:34;20.80;;;14.10;;
51296;SDS011;37380;45.186;9.792;2023-03-26T19:22:29;23.75;;;15.23;;
51296;SDS011;37380;45.186;9.792;2023-03-26T19:24:58;27.20;;;15.98;;
51296;SDS011;37380;45.186;9.792;2023-03-26T19:27:26;17.30;;;14.68;;
51296;SDS011;37380;45.186;9.792;2023-03-26T19:29:54;22.27;;;15.45;;
51296;SDS011;37380;45.186;9.792;2023-03-26T19:32:29;19.63;;;16.23;;
51296;SDS011;37380;45.186;9.792;2023-03-26T19:35:00;23.77;;;16.70;;
51296;SDS011;37380;45.186;9.792;2023-03-26T19:37:30;20.00;;;16.30;;
51296;SDS011;37380;45.186;9.792;2023-03-26T19:42:45;19.80;;;14.20;;
51296;SDS011;37380;45.186;9.792;2023-03-26T19:45:19;15.45;;;13.85;;
51296;SDS011;37380;45.186;9.792;2023-03-26T19:50:39;14.63;;;13.00;;
51296;SDS011;37380;45.186;9.792;2023-03-26T19:53:18;18.80;;;12.90;;
51296;SDS011;37380;45.186;9.792;2023-03-26T19:56:21;20.50;;;12.10;;
51296;SDS011;37380;45.186;9.792;2023-03-26T19:59:22;18.13;;;13.75;;
51296;SDS011;37380;45.186;9.792;2023-03-26T20:02:23;15.73;;;13.05;;
51296;SDS011;37380;45.186;9.792;2023-03-26T20:05:25;16.33;;;14.30;;
51296;SDS011;37380;45.186;9.792;2023-03-26T20:07:55;17.58;;;13.23;;
51296;SDS011;37380;45.186;9.792;2023-03-26T20:10:25;32.50;;;15.07;;
51296;SDS011;37380;45.186;9.792;2023-03-26T20:12:53;20.55;;;13.23;;
51296;SDS011;37380;45.186;9.792;2023-03-26T20:15:22;18.20;;;12.18;;
51296;SDS011;37380;45.186;9.792;2023-03-26T20:17:58;17.13;;;12.00;;
51296;SDS011;37380;45.186;9.792;2023-03-26T20:20:52;15.50;;;13.07;;
51296;SDS011;37380;45.186;9.792;2023-03-26T20:23:20;24.90;;;14.98;;
51296;SDS011;37380;45.186;9.792;2023-03-26T20:25:50;20.05;;;14.35;;
51296;SDS011;37380;45.186;9.792;2023-03-26T20:28:19;17.70;;;12.80;;
51296;SDS011;37380;45.186;9.792;2023-03-26T20:30:47;14.60;;;12.68;;
51296;SDS011;37380;45.186;9.792;2023-03-26T20:33:21;20.38;;;15.18;;
51296;SDS011;37380;45.186;9.792;2023-03-26T20:35:51;16.63;;;14.02;;
51296;SDS011;37380;45.186;9.792;2023-03-26T20:38:20;20.48;;;14.77;;
51296;SDS011;37380;45.186;9.792;2023-03-26T20:41:04;15.63;;;14.05;;
51296;SDS011;37380;45.186;9.792;2023-03-26T20:43:32;18.95;;;13.10;;
51296;SDS011;37380;45.186;9.792;2023-03-26T20:45:59;20.02;;;11.95;;
51296;SDS011;37380;45.186;9.792;2023-03-26T20:48:27;13.25;;;12.00;;
51296;SDS011;37380;45.186;9.792;2023-03-26T20:50:54;14.80;;;12.70;;
51296;SDS011;37380;45.186;9.792;2023-03-26T20:53:29;14.13;;;10.23;;
51296;SDS011;37380;45.186;9.792;2023-03-26T20:56:30;18.80;;;14.25;;
51296;SDS011;37380;45.186;9.792;2023-03-26T20:59:34;23.67;;;12.00;;
51296;SDS011;37380;45.186;9.792;2023-03-26T21:02:01;16.88;;;12.15;;
51296;SDS011;37380;45.186;9.792;2023-03-26T21:04:28;20.40;;;12.13;;
51296;SDS011;37380;45.186;9.792;2023-03-26T21:06:56;16.02;;;13.02;;
51296;SDS011;37380;45.186;9.792;2023-03-26T21:09:37;16.15;;;12.57;;
51296;SDS011;37380;45.186;9.792;2023-03-26T21:14:35;14.00;;;11.05;;
51296;SDS011;37380;45.186;9.792;2023-03-26T21:17:15;17.65;;;12.23;;
51296;SDS011;37380;45.186;9.792;2023-03-26T21:25:19;21.48;;;11.25;;
51296;SDS011;37380;45.186;9.792;2023-03-26T21:30:27;21.80;;;11.75;;
51296;SDS011;37380;45.186;9.792;2023-03-26T21:32:54;21.88;;;12.38;;
51296;SDS011;37380;45.186;9.792;2023-03-26T21:35:21;15.82;;;11.85;;
51296;SDS011;37380;45.186;9.792;2023-03-26T21:37:49;13.05;;;9.82;;
51296;SDS011;37380;45.186;9.792;2023-03-26T21:40:17;17.20;;;12.40;;
51296;SDS011;37380;45.186;9.792;2023-03-26T21:42:46;15.75;;;10.32;;
51296;SDS011;37380;45.186;9.792;2023-03-26T21:45:23;12.57;;;10.77;;
51296;SDS011;37380;45.186;9.792;2023-03-26T21:48:17;22.88;;;12.88;;
51296;SDS011;37380;45.186;9.792;2023-03-26T21:50:45;12.57;;;10.43;;
51296;SDS011;37380;45.186;9.792;2023-03-26T21:53:19;14.30;;;11.80;;
51296;SDS011;37380;45.186;9.792;2023-03-26T22:02:10;17.10;;;10.00;;
51296;SDS011;37380;45.186;9.792;2023-03-26T22:04:46;14.10;;;10.00;;
51296;SDS011;37380;45.186;9.792;2023-03-26T22:07:18;23.30;;;12.13;;
51296;SDS011;37380;45.186;9.792;2023-03-26T22:09:53;16.77;;;11.25;;
51296;SDS011;37380;45.186;9.792;2023-03-26T22:12:21;24.08;;;10.98;;
51296;SDS011;37380;45.186;9.792;2023-03-26T22:14:51;9.73;;;8.27;;
51296;SDS011;37380;45.186;9.792;2023-03-26T22:17:18;16.38;;;10.02;;
51296;SDS011;37380;45.186;9.792;2023-03-26T22:19:45;18.52;;;10.98;;
51296;SDS011;37380;45.186;9.792;2023-03-26T22:22:12;13.88;;;9.63;;
51296;SDS011;37380;45.186;9.792;2023-03-26T22:24:40;14.38;;;9.63;;
51296;SDS011;37380;45.186;9.792;2023-03-26T22:27:08;14.82;;;9.63;;
51296;SDS011;37380;45.186;9.792;2023-03-26T22:29:35;26.00;;;11.98;;
51296;SDS011;37380;45.186;9.792;2023-03-26T22:32:02;17.92;;;12.38;;
51296;SDS011;37380;45.186;9.792;2023-03-26T22:34:29;14.73;;;10.43;;
51296;SDS011;37380;45.186;9.792;2023-03-26T22:36:58;15.80;;;10.30;;
51296;SDS011;37380;45.186;9.792;2023-03-26T22:39:25;14.55;;;10.18;;
51296;SDS011;37380;45.186;9.792;2023-03-26T22:41:53;16.42;;;10.63;;
51296;SDS011;37380;45.186;9.792;2023-03-26T22:44:20;12.57;;;10.73;;
51296;SDS011;37380;45.186;9.792;2023-03-26T22:46:47;20.52;;;11.07;;
51296;SDS011;37380;45.186;9.792;2023-03-26T22:49:18;16.90;;;9.68;;
51296;SDS011;37380;45.186;9.792;2023-03-26T22:51:45;17.98;;;10.57;;
51296;SDS011;37380;45.186;9.792;2023-03-26T22:54:19;14.52;;;9.32;;
51296;SDS011;37380;45.186;9.792;2023-03-26T22:57:19;18.45;;;10.63;;
51296;SDS011;37380;45.186;9.792;2023-03-26T23:00:14;11.93;;;9.25;;
51296;SDS011;37380;45.186;9.792;2023-03-26T23:02:45;14.73;;;10.13;;
51296;SDS011;37380;45.186;9.792;2023-03-26T23:05:13;23.35;;;11.85;;
51296;SDS011;37380;45.186;9.792;2023-03-26T23:07:40;16.70;;;10.95;;
51296;SDS011;37380;45.186;9.792;2023-03-26T23:10:08;10.43;;;9.38;;
51296;SDS011;37380;45.186;9.792;2023-03-26T23:12:37;12.95;;;8.77;;
51296;SDS011;37380;45.186;9.792;2023-03-26T23:15:05;15.65;;;11.77;;
51296;SDS011;37380;45.186;9.792;2023-03-26T23:17:40;20.42;;;12.55;;
51296;SDS011;37380;45.186;9.792;2023-03-26T23:20:35;19.05;;;12.15;;
51296;SDS011;37380;45.186;9.792;2023-03-26T23:23:11;18.27;;;12.68;;
51296;SDS011;37380;45.186;9.792;2023-03-26T23:26:09;14.30;;;11.85;;
51296;SDS011;37380;45.186;9.792;2023-03-26T23:28:37;19.48;;;12.15;;
51296;SDS011;37380;45.186;9.792;2023-03-26T23:31:04;16.90;;;12.25;;
51296;SDS011;37380;45.186;9.792;2023-03-26T23:33:34;15.68;;;11.15;;
51296;SDS011;37380;45.186;9.792;2023-03-26T23:36:04;11.93;;;10.65;;
51296;SDS011;37380;45.186;9.792;2023-03-26T23:38:36;22.30;;;11.60;;
51296;SDS011;37380;45.186;9.792;2023-03-26T23:41:10;14.63;;;10.70;;
51296;SDS011;37380;45.186;9.792;2023-03-26T23:43:41;16.10;;;12.20;;
51296;SDS011;37380;45.186;9.792;2023-03-26T23:46:27;16.27;;;12.38;;